Time;durP1;ratioP1;P1;durP2;ratioP2;P2;SDS_P1;SDS_P2;PMS_P1;PMS_P2;Temp;Humidity;BMP_temperature;BMP_pressure;BME280_temperature;BME280_humidity;BME280_pressure;Samples;Min_cycle;Max_cycle;Signal;HPM_P1;HPM_P2
2023/03/24 00:00:28;;;;;;;10.23;2.08;;;10.00;73.90;;;;;;4122623;28;20400;-81
2023/03/24 00:02:50;;;;;;;9.60;2.28;;;10.00;73.90;;;;;;4129475;28;20481;-84
2023/03/24 00:05:12;;;;;;;6.38;2.00;;;10.00;73.90;;;;;;4132498;28;20061;-84
2023/03/24 00:07:37;;;;;;;10.75;2.35;;;10.10;74.00;;;;;;4140237;28;20546;-83
2023/03/24 00:09:58;;;;;;;9.93;2.65;;;10.10;74.10;;;;;;4128564;28;20053;-83
2023/03/24 00:12:19;;;;;;;9.65;2.28;;;10.10;74.20;;;;;;4125941;28;20498;-82
2023/03/24 00:14:40;;;;;;;8.90;2.55;;;10.10;74.30;;;;;;4139777;28;20095;-83
2023/03/24 00:16:41;;;;;;;9.57;2.75;;;10.10;74.30;;;;;;4123176;28;20026;-83
2023/03/24 00:18:42;;;;;;;8.98;2.25;;;10.10;74.40;;;;;;4111457;28;20127;-83
2023/03/24 00:20:44;;;;;;;10.23;2.42;;;10.10;75.20;;;;;;4125725;28;20043;-83
2023/03/24 00:22:49;;;;;;;7.68;3.03;;;10.10;74.60;;;;;;4126862;28;20031;-82
2023/03/24 00:24:50;;;;;;;8.75;2.65;;;10.10;74.60;;;;;;4131038;28;20113;-82
2023/03/24 00:26:51;;;;;;;9.02;3.70;;;10.10;74.70;;;;;;4107198;28;20034;-83
2023/03/24 00:28:52;;;;;;;10.15;3.40;;;10.10;74.70;;;;;;4116474;28;20030;-83
2023/03/24 00:30:53;;;;;;;8.50;3.22;;;10.10;74.80;;;;;;4127176;28;20042;-83
2023/03/24 00:32:54;;;;;;;11.23;3.70;;;10.10;74.80;;;;;;4125461;28;20407;-83
2023/03/24 00:34:56;;;;;;;10.63;3.67;;;10.10;75.00;;;;;;4129408;28;20093;-84
2023/03/24 00:41:29;;;;;;;;;;;;;;;;;;;;;
2023/03/24 00:44:05;;;;;;;13.68;4.40;;;10.10;75.30;;;;;;4146612;28;20094;-83
2023/03/24 00:46:36;;;;;;;10.68;4.53;;;10.10;76.10;;;;;;4130458;28;20030;-83
2023/03/24 00:48:42;;;;;;;10.95;4.20;;;10.10;75.10;;;;;;4145086;28;20029;-83
2023/03/24 00:51:09;;;;;;;10.23;3.97;;;10.10;75.20;;;;;;4145512;28;20057;-83
2023/03/24 00:53:30;;;;;;;13.30;4.72;;;10.10;75.20;;;;;;4147114;28;20041;-83
2023/03/24 00:55:58;;;;;;;11.68;4.20;;;10.10;75.30;;;;;;4147345;28;20022;-81
2023/03/24 00:58:21;;;;;;;9.52;4.65;;;10.10;75.30;;;;;;4135995;28;20436;-83
2023/03/24 01:00:44;;;;;;;10.20;4.60;;;10.10;75.30;;;;;;4142058;28;20029;-83
2023/03/24 01:03:04;;;;;;;14.93;4.60;;;10.10;75.30;;;;;;4146026;28;20034;-83
2023/03/24 01:05:28;;;;;;;14.05;4.82;;;10.00;75.30;;;;;;4147947;28;20062;-84
2023/03/24 01:07:52;;;;;;;15.32;4.95;;;10.10;75.50;;;;;;4143514;28;20105;-83
2023/03/24 01:10:15;;;;;;;10.85;5.00;;;10.10;75.60;;;;;;4133711;28;20044;-83
2023/03/24 01:12:36;;;;;;;14.82;5.15;;;10.00;75.50;;;;;;4144051;28;20065;-83
2023/03/24 01:15:14;;;;;;;14.35;5.47;;;9.90;75.50;;;;;;4148204;28;20551;-83
2023/03/24 01:17:35;;;;;;;10.52;5.25;;;10.00;75.80;;;;;;4135677;28;20053;-83
2023/03/24 01:19:56;;;;;;;13.18;6.28;;;10.00;75.70;;;;;;4144003;28;20038;-83
2023/03/24 01:22:17;;;;;;;13.73;6.20;;;10.00;75.80;;;;;;4132163;28;20030;-84
2023/03/24 01:24:45;;;;;;;14.38;7.22;;;10.00;76.00;;;;;;4147657;28;20042;-84
2023/03/24 01:27:06;;;;;;;15.18;6.80;;;10.00;76.10;;;;;;4134280;28;20031;-84
2023/03/24 01:29:36;;;;;;;16.65;7.80;;;10.00;76.20;;;;;;4148139;28;20037;-84
2023/03/24 01:31:56;;;;;;;15.70;7.88;;;9.90;76.20;;;;;;4151011;28;20049;-84
2023/03/24 01:34:17;;;;;;;21.42;8.13;;;9.90;76.30;;;;;;4150389;28;20034;-84
2023/03/24 01:36:38;;;;;;;16.20;8.20;;;9.90;76.50;;;;;;4135554;28;20035;-83
2023/03/24 01:39:02;;;;;;;15.63;8.80;;;9.90;76.60;;;;;;4149138;28;20200;-84
2023/03/24 01:41:23;;;;;;;16.33;8.77;;;9.90;76.80;;;;;;4150322;28;20121;-84
2023/03/24 01:43:46;;;;;;;15.52;8.00;;;9.90;76.90;;;;;;4147924;28;20084;-84
2023/03/24 01:49:07;;;;;;;16.77;8.82;;;9.90;77.10;;;;;;4149743;28;20030;-85
2023/03/24 01:51:42;;;;;;;16.83;8.57;;;9.90;77.10;;;;;;4148349;28;20045;-84
2023/03/24 01:54:08;;;;;;;18.80;8.93;;;9.90;77.30;;;;;;4146352;28;20054;-84
2023/03/24 01:56:38;;;;;;;15.85;8.45;;;9.90;77.30;;;;;;4139362;28;20018;-83
2023/03/24 01:59:26;;;;;;;18.48;9.30;;;9.80;77.30;;;;;;4151699;28;20582;-83
2023/03/24 02:01:51;;;;;;;19.08;9.25;;;9.90;77.50;;;;;;4147417;28;20136;-83
2023/03/24 02:04:12;;;;;;;19.42;9.68;;;9.90;77.40;;;;;;4137499;28;20595;-84
2023/03/24 02:07:12;;;;;;;21.80;10.73;;;9.90;77.60;;;;;;4139898;28;20451;-84
2023/03/24 02:09:33;;;;;;;18.13;10.20;;;9.80;77.60;;;;;;4123624;28;20034;-84
2023/03/24 02:12:36;;;;;;;23.10;10.35;;;9.80;77.70;;;;;;4148236;28;20038;-83
2023/03/24 02:15:14;;;;;;;21.15;9.98;;;9.90;78.20;;;;;;4135198;28;20042;-83
2023/03/24 02:17:47;;;;;;;15.65;9.43;;;9.90;78.10;;;;;;4137853;28;20027;-84
2023/03/24 02:20:30;;;;;;;19.63;9.75;;;9.90;78.30;;;;;;4153809;28;20030;-84
2023/03/24 02:23:08;;;;;;;20.40;9.82;;;10.00;78.60;;;;;;4150763;28;20048;-86
2023/03/24 02:26:02;;;;;;;19.58;9.68;;;9.90;78.60;;;;;;4151942;28;20044;-85
2023/03/24 02:28:36;;;;;;;16.10;9.48;;;9.90;78.80;;;;;;4133932;28;20045;-83
2023/03/24 02:31:27;;;;;;;18.00;9.15;;;9.90;78.70;;;;;;4146018;28;20056;-85
2023/03/24 02:34:16;;;;;;;19.77;9.63;;;9.90;78.90;;;;;;4146145;28;20238;-85
2023/03/24 02:36:28;;;;;;;17.33;8.75;;;9.90;79.10;;;;;;4074566;29;20036;-83
2023/03/24 02:39:06;;;;;;;17.38;9.43;;;9.90;78.90;;;;;;4147935;28;20042;-85
2023/03/24 02:41:38;;;;;;;15.93;8.32;;;9.90;79.10;;;;;;4146741;28;20428;-84
2023/03/24 02:45:07;;;;;;;16.90;8.70;;;9.90;79.10;;;;;;4136756;28;20038;-84
2023/03/24 02:47:36;;;;;;;14.35;8.30;;;9.90;79.40;;;;;;4133322;28;20041;-83
2023/03/24 02:50:12;;;;;;;17.00;8.23;;;9.90;79.20;;;;;;4130746;28;20042;-84
2023/03/24 02:52:45;;;;;;;16.02;8.18;;;10.00;79.40;;;;;;4136150;28;20361;-83
2023/03/24 02:55:10;;;;;;;15.10;7.07;;;9.90;79.40;;;;;;4160777;28;20037;-84
2023/03/24 02:58:04;;;;;;;14.48;8.13;;;9.90;79.40;;;;;;4149597;28;20171;-83
2023/03/24 03:01:11;;;;;;;14.75;7.40;;;9.90;79.70;;;;;;4148050;28;20061;-83
2023/03/24 03:04:01;;;;;;;14.43;7.50;;;10.00;79.70;;;;;;4136525;28;20030;-86
2023/03/24 03:06:39;;;;;;;16.42;7.53;;;10.00;79.80;;;;;;4137409;28;20043;-84
2023/03/24 03:09:26;;;;;;;18.27;7.82;;;10.00;79.70;;;;;;4132379;28;20042;-85
2023/03/24 03:12:33;;;;;;;18.17;6.47;;;10.00;79.80;;;;;;4148833;28;20034;-84
2023/03/24 03:19:41;;;;;;;;;;;;;;;;;;;;;
2023/03/24 03:22:27;;;;;;;10.70;4.90;;;10.00;80.00;;;;;;4117747;28;20035;-83
2023/03/24 03:25:27;;;;;;;12.95;5.40;;;10.10;79.90;;;;;;4140150;28;20030;-84
2023/03/24 03:28:30;;;;;;;;;;;;;;;;;;;;;
2023/03/24 03:30:46;;;;;;;9.50;4.68;;;10.10;80.60;;;;;;4042181;29;20680;-84
2023/03/24 03:33:29;;;;;;;12.98;5.78;;;10.10;80.10;;;;;;4131343;28;20366;-84
2023/03/24 03:39:44;;;;;;;12.23;4.90;;;10.10;80.40;;;;;;4124811;28;20061;-83
2023/03/24 03:42:43;;;;;;;10.18;4.82;;;10.10;80.50;;;;;;4135634;28;20121;-84
2023/03/24 03:45:27;;;;;;;;;;;;;;;;;;;;;
2023/03/24 03:47:54;;;;;;;9.02;4.30;;;10.10;80.40;;;;;;4143079;28;20032;-84
2023/03/24 03:50:33;;;;;;;7.47;4.03;;;10.10;80.30;;;;;;4142260;28;20065;-85
2023/03/24 03:53:46;;;;;;;9.80;4.07;;;10.20;80.60;;;;;;4131736;28;20034;-83
2023/03/24 03:56:07;;;;;;;13.43;3.90;;;10.10;80.70;;;;;;4127742;28;20030;-84
2023/03/24 03:58:38;;;;;;;10.85;3.88;;;10.20;80.70;;;;;;4127886;28;20066;-83
2023/03/24 04:01:05;;;;;;;10.75;4.10;;;10.20;80.70;;;;;;4126843;28;20038;-85
2023/03/24 04:03:58;;;;;;;9.07;3.88;;;10.20;80.80;;;;;;4140246;28;20090;-84
2023/03/24 04:06:38;;;;;;;10.75;3.67;;;10.20;80.70;;;;;;4126511;28;20034;-85
2023/03/24 04:09:27;;;;;;;5.57;3.70;;;10.20;80.80;;;;;;4138476;28;20507;-84
2023/03/24 04:12:06;;;;;;;8.35;3.42;;;10.20;81.00;;;;;;4141270;28;20045;-84
2023/03/24 04:21:14;;;;;;;4.38;3.08;;;10.20;81.00;;;;;;4075303;29;20032;-83
2023/03/24 04:24:40;;;;;;;13.00;3.72;;;10.20;80.90;;;;;;4078832;29;20063;-85
2023/03/24 04:30:54;;;;;;;8.02;3.20;;;10.30;81.10;;;;;;4089787;28;20588;-84
2023/03/24 04:33:27;;;;;;;7.43;3.35;;;10.30;81.00;;;;;;4090742;28;20062;-85
2023/03/24 04:36:22;;;;;;;5.88;2.80;;;10.30;81.10;;;;;;4080566;29;20042;-84
2023/03/24 04:39:27;;;;;;;7.90;3.53;;;10.20;81.10;;;;;;4077315;28;20027;-84
2023/03/24 04:42:04;;;;;;;5.80;3.55;;;10.30;81.00;;;;;;4092208;29;20115;-84
2023/03/24 04:44:33;;;;;;;6.53;3.20;;;10.20;81.10;;;;;;4100842;28;20058;-83
2023/03/24 04:49:03;;;;;;;6.65;3.40;;;10.30;81.20;;;;;;4152887;28;20259;-83
2023/03/24 04:51:27;;;;;;;6.15;2.97;;;10.40;81.30;;;;;;4142835;28;20026;-84
2023/03/24 04:53:28;;;;;;;5.68;3.17;;;10.30;81.30;;;;;;4167813;28;20089;-86
2023/03/24 04:56:36;;;;;;;8.45;3.40;;;10.30;81.40;;;;;;4150715;28;20041;-84
2023/03/24 04:59:27;;;;;;;5.13;2.88;;;10.30;81.40;;;;;;4133096;28;20037;-85
2023/03/24 05:02:10;;;;;;;4.10;2.85;;;10.40;81.60;;;;;;4125560;28;20102;-85
2023/03/24 05:11:55;;;;;;;;;;;;;;;;;;;;;
2023/03/24 05:17:22;;;;;;;4.03;2.53;;;10.40;81.40;;;;;;4140516;28;20061;-84
2023/03/24 05:19:23;;;;;;;5.15;2.75;;;10.40;81.40;;;;;;4137840;28;20586;-85
2023/03/24 05:21:47;;;;;;;5.65;2.92;;;10.30;81.40;;;;;;4139686;28;20041;-83
2023/03/24 05:23:53;;;;;;;6.65;2.97;;;10.40;81.60;;;;;;4125829;28;20042;-83
2023/03/24 05:26:06;;;;;;;4.70;2.78;;;10.40;81.70;;;;;;4123128;28;20034;-84
2023/03/24 05:28:27;;;;;;;3.53;2.80;;;10.40;81.70;;;;;;4142048;28;20081;-84
2023/03/24 05:30:48;;;;;;;4.22;3.00;;;10.50;81.80;;;;;;4141374;28;20088;-85
2023/03/24 05:33:08;;;;;;;4.97;2.90;;;10.50;82.00;;;;;;4141017;28;20041;-84
2023/03/24 05:35:29;;;;;;;6.07;3.22;;;10.40;82.10;;;;;;4141783;28;20042;-84
2023/03/24 05:37:50;;;;;;;3.90;2.88;;;10.40;82.20;;;;;;4126219;28;20116;-83
2023/03/24 05:40:20;;;;;;;6.38;3.05;;;10.50;82.60;;;;;;4128901;28;20026;-85
2023/03/24 05:42:41;;;;;;;6.63;2.72;;;10.40;82.20;;;;;;4142324;28;20042;-85
2023/03/24 05:45:20;;;;;;;4.57;2.38;;;10.50;82.30;;;;;;4146047;28;20030;-84
2023/03/24 05:47:21;;;;;;;3.60;2.88;;;10.50;82.50;;;;;;4143237;28;20137;-85
2023/03/24 05:49:31;;;;;;;5.30;3.17;;;10.50;82.60;;;;;;4126043;28;20589;-84
2023/03/24 05:51:35;;;;;;;7.90;3.13;;;10.60;82.60;;;;;;4127671;28;20425;-85
2023/03/24 05:53:44;;;;;;;4.60;3.30;;;10.60;82.70;;;;;;4123339;28;20022;-84
2023/03/24 05:56:17;;;;;;;7.68;3.47;;;10.50;82.80;;;;;;4141907;28;20022;-82
2023/03/24 05:58:20;;;;;;;5.65;3.50;;;10.50;82.60;;;;;;4107432;28;20105;-85
2023/03/24 06:00:22;;;;;;;6.63;3.23;;;10.60;82.60;;;;;;4141811;28;20105;-85
2023/03/24 06:02:32;;;;;;;5.25;3.08;;;10.50;82.80;;;;;;4140459;28;20407;-84
2023/03/24 06:04:33;;;;;;;3.50;2.70;;;10.60;82.90;;;;;;4144913;28;20022;-83
2023/03/24 06:06:37;;;;;;;4.72;2.88;;;10.60;82.80;;;;;;4138266;28;20026;-84
2023/03/24 06:08:57;;;;;;;4.22;3.03;;;10.70;82.90;;;;;;4124417;28;21250;-86
2023/03/24 06:11:18;;;;;;;4.40;2.97;;;10.60;82.80;;;;;;4139933;28;20040;-85
2023/03/24 06:13:47;;;;;;;4.07;2.55;;;10.60;82.80;;;;;;4144637;28;20046;-86
2023/03/24 06:16:06;;;;;;;3.65;2.97;;;10.70;82.80;;;;;;4140249;28;20041;-86
2023/03/24 06:19:05;;;;;;;3.15;2.10;;;10.60;82.90;;;;;;4127052;28;20034;-85
2023/03/24 06:21:29;;;;;;;4.60;2.22;;;10.60;83.50;;;;;;4094752;28;20055;-87
2023/03/24 06:23:55;;;;;;;3.78;2.10;;;10.70;83.40;;;;;;4122687;28;20050;-84
2023/03/24 06:26:18;;;;;;;4.53;1.70;;;10.60;83.40;;;;;;4128548;28;20034;-86
2023/03/24 06:29:02;;;;;;;3.60;1.90;;;10.70;84.00;;;;;;4127735;28;20070;-85
2023/03/24 06:31:23;;;;;;;2.97;1.85;;;10.60;83.80;;;;;;4143581;28;20034;-85
2023/03/24 06:33:38;;;;;;;2.70;1.83;;;10.80;83.70;;;;;;4143137;28;20030;-85
2023/03/24 06:35:42;;;;;;;11.05;2.50;;;10.70;83.50;;;;;;4115682;28;20027;-85
2023/03/24 06:37:43;;;;;;;9.18;2.53;;;10.70;83.20;;;;;;4129285;28;20409;-86
2023/03/24 06:39:45;;;;;;;12.70;2.97;;;10.70;83.10;;;;;;4140538;28;20202;-85
2023/03/24 06:42:06;;;;;;;7.85;2.35;;;10.70;83.00;;;;;;4146194;28;20026;-86
2023/03/24 06:44:26;;;;;;;10.63;3.45;;;10.70;82.60;;;;;;4145972;28;20096;-85
2023/03/24 06:46:30;;;;;;;11.30;3.08;;;10.70;82.50;;;;;;4145279;28;20029;-85
2023/03/24 06:48:50;;;;;;;15.85;3.38;;;10.70;82.10;;;;;;4145242;28;20037;-85
2023/03/24 06:51:11;;;;;;;14.40;3.45;;;10.70;81.90;;;;;;4145145;28;20063;-88
2023/03/24 06:53:42;;;;;;;13.75;3.13;;;10.70;81.80;;;;;;4145355;28;20065;-86
2023/03/24 06:56:03;;;;;;;11.10;2.88;;;10.60;81.50;;;;;;4139007;28;20495;-86
2023/03/24 06:58:24;;;;;;;16.88;2.83;;;10.60;81.40;;;;;;4140633;28;20040;-86
2023/03/24 07:00:47;;;;;;;12.55;2.60;;;10.60;81.00;;;;;;4126955;28;20553;-85
2023/03/24 07:03:07;;;;;;;11.75;2.10;;;10.60;80.60;;;;;;4137052;28;20116;-85
2023/03/24 07:05:28;;;;;;;16.88;2.55;;;10.60;80.50;;;;;;4143716;28;20030;-85
2023/03/24 07:07:49;;;;;;;13.00;3.03;;;10.50;80.10;;;;;;4141777;28;20038;-86
2023/03/24 07:10:11;;;;;;;15.77;2.42;;;10.50;79.50;;;;;;4143156;28;20488;-84
2023/03/24 07:12:37;;;;;;;16.98;2.58;;;10.30;79.20;;;;;;4132657;28;20475;-85
2023/03/24 07:15:16;;;;;;;19.00;2.55;;;10.30;79.00;;;;;;4129458;28;20417;-84
2023/03/24 07:23:52;;;;;;;26.30;3.20;;;10.10;78.10;;;;;;4144885;28;20037;-85
2023/03/24 07:25:53;;;;;;;17.95;2.65;;;10.10;77.80;;;;;;4143667;28;20101;-85
2023/03/24 07:27:55;;;;;;;22.77;3.28;;;10.00;77.90;;;;;;4132462;28;20121;-85
2023/03/24 07:29:59;;;;;;;25.02;3.45;;;10.10;77.90;;;;;;4140079;28;20736;-84
2023/03/24 07:32:00;;;;;;;25.02;3.08;;;10.00;77.90;;;;;;4142554;28;20026;-85
2023/03/24 07:34:20;;;;;;;25.92;3.22;;;10.00;77.80;;;;;;4142361;28;20471;-85
2023/03/24 07:36:41;;;;;;;29.17;3.33;;;9.90;77.70;;;;;;4146360;28;20017;-84
2023/03/24 07:39:05;;;;;;;18.83;2.78;;;9.90;77.50;;;;;;4145198;28;20092;-84
2023/03/24 07:41:28;;;;;;;22.35;3.33;;;9.90;77.40;;;;;;4132464;28;21229;-83
2023/03/24 07:43:50;;;;;;;20.13;3.20;;;9.90;77.40;;;;;;4128765;28;20030;-84
2023/03/24 07:46:13;;;;;;;19.02;3.25;;;9.90;76.90;;;;;;4133914;28;20516;-84
2023/03/24 07:48:36;;;;;;;24.90;2.97;;;9.80;76.90;;;;;;4144692;28;20435;-84
2023/03/24 07:50:57;;;;;;;19.63;2.75;;;9.80;76.90;;;;;;4146065;28;20026;-84
2023/03/24 07:53:18;;;;;;;28.77;2.92;;;9.90;76.60;;;;;;4133031;28;20399;-82
2023/03/24 07:55:44;;;;;;;28.17;3.17;;;9.90;76.50;;;;;;4127520;28;20487;-84
2023/03/24 07:58:05;;;;;;;18.08;3.38;;;9.80;76.30;;;;;;4126866;28;20050;-83
2023/03/24 08:00:36;;;;;;;23.00;3.83;;;9.80;75.50;;;;;;4143351;28;20503;-83
2023/03/24 08:02:37;;;;;;;18.92;2.70;;;9.80;75.40;;;;;;4126757;28;20035;-85
2023/03/24 08:04:41;;;;;;;21.90;3.95;;;9.80;75.60;;;;;;4133108;28;20041;-84
2023/03/24 08:06:45;;;;;;;19.60;3.38;;;9.80;75.70;;;;;;4143759;28;20458;-83
2023/03/24 08:08:46;;;;;;;25.33;3.33;;;9.90;75.70;;;;;;4145711;28;20030;-84
2023/03/24 08:10:49;;;;;;;27.80;2.97;;;9.80;75.40;;;;;;4127585;28;20053;-83
2023/03/24 08:13:09;;;;;;;20.42;3.80;;;9.80;75.40;;;;;;4131746;28;20042;-85
2023/03/24 08:15:31;;;;;;;25.00;3.83;;;9.80;75.10;;;;;;4146647;28;20507;-85
2023/03/24 08:17:52;;;;;;;20.83;3.80;;;9.70;74.90;;;;;;4131091;28;20125;-83
2023/03/24 08:20:13;;;;;;;23.50;3.17;;;9.80;75.00;;;;;;4147124;28;20040;-84
2023/03/24 08:22:35;;;;;;;25.30;3.53;;;9.80;75.10;;;;;;4144657;28;20042;-85
2023/03/24 08:24:59;;;;;;;23.63;3.00;;;9.80;74.90;;;;;;4144536;28;20474;-84
2023/03/24 08:27:20;;;;;;;22.50;3.08;;;9.80;75.10;;;;;;4129349;28;20093;-84
2023/03/24 08:29:41;;;;;;;20.98;3.83;;;9.80;75.10;;;;;;4143215;28;20037;-84
2023/03/24 08:32:02;;;;;;;21.58;3.45;;;9.80;75.00;;;;;;4141782;28;20540;-86
2023/03/24 08:34:23;;;;;;;33.38;4.05;;;9.80;75.00;;;;;;4143315;28;20054;-84
2023/03/24 08:36:44;;;;;;;38.28;4.55;;;9.80;75.00;;;;;;4131074;28;20054;-84
2023/03/24 08:39:09;;;;;;;23.95;3.50;;;9.80;74.70;;;;;;4144198;28;20136;-83
2023/03/24 08:41:33;;;;;;;25.98;4.32;;;9.70;74.70;;;;;;4142426;28;20054;-84
2023/03/24 08:43:54;;;;;;;24.13;3.03;;;9.80;74.70;;;;;;4127696;28;20069;-83
2023/03/24 08:45:57;;;;;;;27.95;3.38;;;9.70;74.60;;;;;;4125739;28;20518;-86
2023/03/24 08:48:19;;;;;;;29.48;4.30;;;9.80;74.50;;;;;;4128675;28;20030;-84
2023/03/24 08:50:41;;;;;;;17.85;2.88;;;9.80;74.50;;;;;;4146020;28;20065;-84
2023/03/24 08:53:02;;;;;;;20.83;3.03;;;9.70;74.40;;;;;;4138711;28;20037;-83
2023/03/24 08:55:04;;;;;;;16.30;3.10;;;9.70;74.60;;;;;;4147329;28;20113;-82
2023/03/24 08:57:24;;;;;;;25.05;3.95;;;9.70;74.20;;;;;;4143084;28;20037;-82
2023/03/24 08:59:45;;;;;;;23.90;3.53;;;9.70;74.40;;;;;;4140398;28;20077;-82
2023/03/24 09:01:59;;;;;;;28.98;3.92;;;9.70;74.50;;;;;;4141529;28;20034;-84
2023/03/24 09:04:20;;;;;;;24.40;3.85;;;9.70;74.40;;;;;;4141936;28;20038;-82
2023/03/24 09:06:41;;;;;;;19.50;3.42;;;9.70;74.60;;;;;;4142146;28;20550;-82
2023/03/24 09:09:03;;;;;;;24.95;4.25;;;9.70;74.80;;;;;;4132328;28;20572;-84
2023/03/24 09:11:26;;;;;;;31.05;4.55;;;9.80;74.90;;;;;;4144356;28;20037;-85
2023/03/24 09:13:49;;;;;;;24.77;3.63;;;9.80;74.50;;;;;;4133092;28;20119;-83
2023/03/24 09:16:10;;;;;;;30.08;3.22;;;9.80;74.30;;;;;;4132169;28;20053;-85
2023/03/24 09:18:34;;;;;;;27.17;3.72;;;9.70;74.10;;;;;;4148058;28;20061;-84
2023/03/24 09:20:55;;;;;;;23.73;3.80;;;9.80;74.00;;;;;;4148382;28;20147;-84
2023/03/24 09:23:16;;;;;;;22.17;3.15;;;9.70;74.10;;;;;;4145871;28;20057;-86
2023/03/24 09:25:36;;;;;;;20.35;3.58;;;9.70;73.70;;;;;;4144942;28;20287;-82
2023/03/24 09:27:57;;;;;;;18.45;3.15;;;9.60;73.50;;;;;;4147417;28;20039;-83
2023/03/24 09:30:18;;;;;;;20.52;3.22;;;9.60;73.50;;;;;;4146137;28;20432;-83
2023/03/24 09:32:39;;;;;;;29.80;3.47;;;9.60;73.80;;;;;;4133364;28;20030;-82
2023/03/24 09:35:00;;;;;;;24.05;3.75;;;9.50;73.70;;;;;;4152996;28;20032;-82
2023/03/24 09:37:21;;;;;;;23.27;4.65;;;9.50;73.70;;;;;;4155681;28;20085;-83
2023/03/24 09:39:41;;;;;;;20.15;3.33;;;9.50;73.90;;;;;;4147524;28;20438;-84
2023/03/24 09:42:13;;;;;;;22.90;2.83;;;9.50;73.80;;;;;;4144515;28;20084;-83
2023/03/24 09:44:57;;;;;;;25.23;3.50;;;9.50;73.70;;;;;;4146762;28;20038;-84
2023/03/24 09:47:38;;;;;;;24.58;4.30;;;9.50;73.90;;;;;;4142145;28;20030;-83
2023/03/24 09:50:05;;;;;;;23.67;2.55;;;9.60;73.90;;;;;;4147451;28;20029;-84
2023/03/24 09:52:41;;;;;;;27.67;3.80;;;9.50;73.70;;;;;;4144295;28;20057;-84
2023/03/24 09:55:03;;;;;;;25.02;3.38;;;9.50;73.70;;;;;;4144216;28;20056;-85
2023/03/24 09:57:43;;;;;;;22.20;3.25;;;9.50;73.40;;;;;;4133665;28;20026;-84
2023/03/24 10:00:22;;;;;;;24.17;3.55;;;9.50;73.30;;;;;;4145933;28;20030;-81
2023/03/24 10:02:43;;;;;;;23.45;3.35;;;9.50;72.90;;;;;;4129778;28;20593;-84
2023/03/24 10:05:16;;;;;;;14.82;2.65;;;9.50;73.00;;;;;;4134893;28;20098;-86
2023/03/24 10:07:45;;;;;;;19.58;3.38;;;9.50;73.20;;;;;;4139562;28;20042;-84
2023/03/24 10:10:20;;;;;;;23.00;3.10;;;9.50;73.00;;;;;;4140509;28;20137;-85
2023/03/24 10:12:47;;;;;;;24.45;3.20;;;9.50;72.80;;;;;;4147439;28;20034;-83
2023/03/24 10:15:24;;;;;;;34.05;4.20;;;9.50;72.50;;;;;;4146630;28;20464;-84
2023/03/24 10:17:34;;;;;;;21.23;3.08;;;9.60;72.50;;;;;;4147402;28;20117;-84
2023/03/24 10:20:06;;;;;;;23.77;3.72;;;9.60;72.30;;;;;;4146412;28;20026;-84
2023/03/24 10:22:28;;;;;;;20.73;3.33;;;9.60;72.40;;;;;;4130750;28;20077;-85
2023/03/24 10:24:41;;;;;;;22.58;3.15;;;9.60;72.40;;;;;;4144154;28;20115;-86
2023/03/24 10:27:43;;;;;;;18.97;2.90;;;9.70;72.40;;;;;;4146621;28;20044;-84
2023/03/24 10:30:15;;;;;;;21.05;2.80;;;9.70;72.00;;;;;;4148149;28;20029;-83
2023/03/24 10:32:22;;;;;;;22.38;3.40;;;9.80;72.10;;;;;;4143580;28;20041;-85
2023/03/24 10:34:47;;;;;;;21.85;3.03;;;9.80;72.50;;;;;;4144128;28;20571;-85
2023/03/24 10:37:09;;;;;;;24.05;3.25;;;9.90;72.70;;;;;;4143025;28;20034;-85
2023/03/24 10:39:31;;;;;;;23.65;3.20;;;10.00;72.60;;;;;;4129219;28;20116;-84
2023/03/24 10:41:53;;;;;;;31.20;3.72;;;10.00;71.30;;;;;;4146742;28;20124;-86
2023/03/24 10:44:14;;;;;;;23.35;3.47;;;10.10;70.90;;;;;;4146276;28;20038;-84
2023/03/24 10:46:40;;;;;;;22.48;3.58;;;10.10;70.90;;;;;;4144680;28;20026;-86
2023/03/24 10:49:10;;;;;;;24.48;4.45;;;10.20;71.00;;;;;;4128679;28;20149;-83
2023/03/24 10:51:35;;;;;;;18.48;3.40;;;10.30;71.30;;;;;;4142561;28;20101;-83
2023/03/24 10:54:16;;;;;;;33.65;4.43;;;10.30;71.30;;;;;;4137914;28;20029;-83
2023/03/24 10:57:03;;;;;;;23.65;3.38;;;10.40;70.80;;;;;;4126972;28;20060;-82
2023/03/24 10:59:26;;;;;;;27.35;3.45;;;10.40;70.30;;;;;;4138846;28;20044;-83
2023/03/24 11:01:47;;;;;;;29.13;3.95;;;10.50;70.00;;;;;;4138105;28;20129;-85
2023/03/24 11:04:15;;;;;;;28.88;4.10;;;10.50;69.20;;;;;;4139395;28;20034;-84
2023/03/24 11:06:36;;;;;;;21.88;3.10;;;10.50;69.00;;;;;;4139939;28;20042;-83
2023/03/24 11:09:09;;;;;;;22.23;3.88;;;10.60;69.90;;;;;;4128552;28;20060;-84
2023/03/24 11:11:30;;;;;;;29.80;3.55;;;10.60;69.30;;;;;;4143925;28;20038;-83
2023/03/24 11:13:56;;;;;;;28.17;4.00;;;10.70;69.10;;;;;;4144236;28;20217;-84
2023/03/24 11:16:18;;;;;;;21.10;3.42;;;10.70;69.20;;;;;;4141906;28;20033;-83
2023/03/24 11:18:55;;;;;;;22.08;3.92;;;10.70;69.30;;;;;;4145300;28;20037;-85
2023/03/24 11:21:16;;;;;;;20.83;3.20;;;10.80;68.80;;;;;;4141331;28;20040;-85
2023/03/24 11:23:43;;;;;;;27.05;3.75;;;10.80;68.40;;;;;;4129913;28;20595;-85
2023/03/24 11:26:21;;;;;;;27.45;4.32;;;10.90;67.90;;;;;;4145004;28;20034;-85
2023/03/24 11:28:46;;;;;;;23.20;3.40;;;11.00;67.70;;;;;;4133537;28;20030;-84
2023/03/24 11:31:09;;;;;;;28.67;3.70;;;11.00;67.40;;;;;;4146370;28;20165;-85
2023/03/24 11:33:33;;;;;;;24.40;3.70;;;11.00;67.30;;;;;;4144423;28;20467;-83
2023/03/24 11:35:54;;;;;;;21.13;3.45;;;11.10;67.30;;;;;;4146599;28;20044;-84
2023/03/24 11:38:18;;;;;;;20.83;3.35;;;11.20;67.90;;;;;;4145002;28;20041;-85
2023/03/24 11:40:52;;;;;;;34.95;4.72;;;11.20;68.10;;;;;;4149631;28;20076;-86
2023/03/24 11:43:20;;;;;;;17.13;2.80;;;11.20;67.80;;;;;;4145216;28;20065;-84
2023/03/24 11:45:43;;;;;;;27.67;3.45;;;11.20;67.00;;;;;;4146188;28;20030;-82
2023/03/24 11:48:15;;;;;;;23.45;3.50;;;11.30;66.60;;;;;;4130006;28;20511;-85
2023/03/24 11:50:38;;;;;;;24.45;3.35;;;11.30;66.30;;;;;;4145009;28;20029;-84
2023/03/24 11:53:03;;;;;;;33.03;4.00;;;11.40;66.50;;;;;;4145604;28;20060;-84
2023/03/24 11:55:39;;;;;;;19.15;3.13;;;11.30;66.00;;;;;;4130293;28;20155;-85
2023/03/24 11:58:10;;;;;;;27.88;3.60;;;11.30;65.80;;;;;;4141193;28;20103;-85
2023/03/24 12:00:35;;;;;;;23.83;3.33;;;11.30;65.50;;;;;;4145106;28;20040;-84
2023/03/24 12:03:37;;;;;;;22.95;3.40;;;11.30;65.70;;;;;;4145961;28;20581;-84
2023/03/24 12:06:14;;;;;;;22.17;4.07;;;11.30;65.80;;;;;;4133794;28;20140;-85
2023/03/24 12:08:47;;;;;;;22.45;3.67;;;11.40;66.60;;;;;;4143061;28;20043;-84
2023/03/24 12:11:15;;;;;;;26.85;3.08;;;11.40;66.50;;;;;;4131509;28;20077;-85
2023/03/24 12:13:50;;;;;;;28.05;3.88;;;11.50;66.50;;;;;;4146214;28;20068;-85
2023/03/24 12:16:31;;;;;;;29.17;3.40;;;11.50;65.80;;;;;;4142489;28;20571;-86
2023/03/24 12:19:09;;;;;;;21.55;3.50;;;11.60;64.80;;;;;;4142023;28;20152;-84
2023/03/24 12:21:40;;;;;;;26.63;3.70;;;11.60;64.40;;;;;;4143030;28;20555;-85
2023/03/24 12:24:12;;;;;;;25.92;3.97;;;11.70;64.50;;;;;;4131135;28;20040;-86
2023/03/24 12:26:33;;;;;;;22.75;2.88;;;11.60;64.40;;;;;;4144335;28;20116;-85
2023/03/24 12:29:10;;;;;;;24.25;4.68;;;11.70;64.40;;;;;;4129930;28;20041;-85
2023/03/24 12:31:53;;;;;;;17.92;3.65;;;11.70;64.00;;;;;;4123132;28;20045;-85
2023/03/24 12:34:41;;;;;;;26.40;4.18;;;11.80;63.90;;;;;;4147435;28;20076;-85
2023/03/24 12:37:10;;;;;;;28.38;5.07;;;11.70;63.80;;;;;;4142005;28;20044;-85
2023/03/24 12:39:34;;;;;;;21.00;4.00;;;11.70;63.80;;;;;;4126238;28;20096;-84
2023/03/24 12:42:00;;;;;;;27.70;3.42;;;11.80;63.40;;;;;;4139328;28;20080;-85
2023/03/24 12:44:50;;;;;;;23.80;3.33;;;11.80;63.60;;;;;;4130560;28;20112;-85
2023/03/24 12:47:34;;;;;;;32.55;3.78;;;11.80;63.80;;;;;;4147089;28;20037;-84
2023/03/24 12:50:11;;;;;;;27.80;3.65;;;11.90;64.10;;;;;;4142245;28;20435;-83
2023/03/24 12:52:49;;;;;;;19.48;3.55;;;11.90;63.40;;;;;;4139704;28;20050;-85
2023/03/24 12:55:24;;;;;;;33.05;4.80;;;11.90;63.40;;;;;;4140281;28;20168;-84
2023/03/24 12:57:50;;;;;;;;;;;11.90;63.30;;;;;;4138281;28;20040;-85
2023/03/24 13:00:10;;;;;;;23.77;2.97;;;11.90;63.10;;;;;;4131494;28;19933;-86
2023/03/24 13:02:36;;;;;;;23.50;3.95;;;11.90;62.90;;;;;;4146455;28;20096;-84
2023/03/24 13:05:04;;;;;;;23.05;3.90;;;11.90;63.10;;;;;;4149061;28;20736;-85
2023/03/24 13:07:27;;;;;;;32.92;3.65;;;11.90;63.50;;;;;;4148539;28;20029;-84
2023/03/24 13:10:12;;;;;;;22.85;3.65;;;11.90;63.30;;;;;;4135423;28;20058;-84
2023/03/24 13:12:39;;;;;;;23.13;4.15;;;11.90;63.10;;;;;;4146413;28;20040;-84
2023/03/24 13:15:15;;;;;;;20.33;3.47;;;11.90;62.30;;;;;;4145748;28;20072;-84
2023/03/24 13:17:48;;;;;;;17.13;3.05;;;11.80;62.00;;;;;;4133037;28;20483;-84
2023/03/24 13:20:13;;;;;;;22.98;4.00;;;11.80;61.60;;;;;;4144152;28;20187;-84
2023/03/24 13:22:35;;;;;;;27.35;4.38;;;11.80;62.00;;;;;;4144610;28;20185;-84
2023/03/24 13:24:55;;;;;;;26.33;4.38;;;11.70;62.40;;;;;;4146388;28;20050;-83
2023/03/24 13:27:29;;;;;;;28.95;4.35;;;11.70;61.50;;;;;;4150677;28;20073;-85